Etusivu
METAR-TAF:

METAR-TAF

Lentoasemat :

Eṣfahān, Iran

Leveyspiiri: 32-28N, Pituuspiiri: 051-43E, korkeus merenpinnasta: 1590 m

Tämänhetkinen sää

Tämä raportti tehtiin 29 minuuttia sitten, kello 16.30 UTC
tyyntä
Lämpötila 5°C
Kosteus 65%
Ilmanpaine 1024 hPa
Näkyvyys: 8000 m

METAR: OIFM 051630Z 00000KT 8000 NSC 05/M01 Q1023 A3023

Aika: 20:29 (16:59 UTC)

Sääennuste

Tämä raportti tehtiin 5 tuntia ja 29 minuuttia sitten, kello 11.30 UTC
Ennuste voimassa 05. päivästä klo 12 UTC - 06. päivään klo 18 UTC
Tuuli 4 kn idästä/kaakosta
Näkyvyys: 6000 m
Ajoittain
06. päivästä klo 02 UTC - 06. päivään klo 06 UTC
Näkyvyys: 4000 m
usvaa
Tulossa
06. päivästä klo 12 UTC - 06. päivään klo 14 UTC
Hajanaisia pilviä 4000 ft:n korkeudessa
Hajonneita pilviä 10000 ft:n korkeudessa

TAF: OIFM 051130Z 0512/0618 11004KT 6000 NSC TEMPO 0602/0606 4000 HZ BECMG 0612/0614 SCT040 BKN100

Säähavainnot ja -ennusteet yli 4000 lentoasemalta (METAR- ja TAF-raportit).

Käytössä olevat sääasemat on merkitty karttaan keltaisilla ja punaisilla pisteillä.

Aseta hiiri pisteen päälle nähdäksesi sääaseman nimen.

Klikkaa sitten nähdäksesi säähavainnot ja -ennusteet.

Kartan vaihtaminen: klikkaa mustalla rastilla varustettuja vihreitä pisteitä, niin voit zoomata sisään; viivalla varustettua vihreää pistettä, niin voit zoomata ulos tai vihreitä nuolia, niin pääset viereisille kartoille.


METAR-TAF: